Private Wetterstation Grnau im Almtal
www.gruenau.tv

Wetterdaten: aktuell Freitag, 24.09.2021 10:55
Datum Zeit Temperatur Temp. min Temp. max Luftfeuchte Luftdruck Regen Wind Richtung Richtung Sonne ET UV Solar Taupunkt Windchill Windben
24.09.2021 10:55 18,4 C 18,4 C 18,7 C 60 % 1018,4 hPa 0,0 l/m 10,9 km/h (2 Bft) W-NW 297 45 min 0,152 mm 2,2 UV-I 135 W/m 10,5 C 16,6 C 40,2 km/h (6 Bft)
24.09.2021 09:55 17,2 C 17,1 C 17,2 C 65 % 1018,5 hPa 0,0 l/m 4,3 km/h (1 Bft) W-SW 242 20 min 0,076 mm 1,7 UV-I 253 W/m 10,6 C 17,2 C 11,3 km/h (2 Bft)
24.09.2021 08:55 16,3 C 16,1 C 16,3 C 69 % 1018,3 hPa 0,0 l/m 2,7 km/h (1 Bft) N 9 5 min 0,026 mm 0,6 UV-I 116 W/m 10,6 C 16,3 C 6,4 km/h (2 Bft)
24.09.2021 07:55 15,7 C 15,5 C 15,7 C 71 % 1018,0 hPa 0,0 l/m 10,5 km/h (2 Bft) W-SW 238 0 min 0,025 mm 0,0 UV-I 44 W/m 10,5 C 13,7 C 22,5 km/h (4 Bft)
24.09.2021 06:55 16,1 C 16,1 C 16,2 C 69 % 1017,8 hPa 0,0 l/m 5,8 km/h (2 Bft) W 260 0 min 0,025 mm 0,0 UV-I 0 W/m 10,4 C 16,1 C 12,9 km/h (3 Bft)
24.09.2021 05:55 15,9 C 15,8 C 15,9 C 68 % 1017,3 hPa 0,0 l/m 4,7 km/h (1 Bft) NW 323 0 min 0,026 mm 0,0 UV-I 0 W/m 10,0 C 15,9 C 11,3 km/h (2 Bft)
24.09.2021 04:55 15,3 C 15,3 C 15,5 C 68 % 1017,3 hPa 0,0 l/m 1,5 km/h (1 Bft) N 7 0 min 0,025 mm 0,0 UV-I 0 W/m 9,4 C 15,3 C 4,8 km/h (1 Bft)
24.09.2021 03:55 15,9 C 15,9 C 16,0 C 64 % 1017,4 hPa 0,0 l/m 1,9 km/h (1 Bft) NO 37 0 min 0,026 mm 0,0 UV-I 0 W/m 9,1 C 15,9 C 6,4 km/h (2 Bft)
24.09.2021 02:55 17,0 C 17,0 C 17,1 C 59 % 1017,8 hPa 0,0 l/m 6,0 km/h (2 Bft) W-NW 296 0 min 0,025 mm 0,0 UV-I 0 W/m 8,9 C 17,0 C 14,5 km/h (3 Bft)
24.09.2021 01:55 13,1 C 13,1 C 13,1 C 76 % 1018,1 hPa 0,0 l/m 1,3 km/h (1 Bft) NO 45 0 min 0,000 mm 0,0 UV-I 0 W/m 9,0 C 13,1 C 4,8 km/h (1 Bft)
24.09.2021 00:55 11,7 C 11,0 C 11,7 C 80 % 1018,0 hPa 0,0 l/m 3,6 km/h (1 Bft) SW 231 0 min 0,000 mm 0,0 UV-I 0 W/m 8,4 C 11,7 C 9,7 km/h (2 Bft)
23.09.2021 23:55 10,2 C 10,2 C 10,3 C 84 % 1018,0 hPa 0,0 l/m 3,8 km/h (1 Bft) SO 129 0 min 0,000 mm 0,0 UV-I 0 W/m 7,6 C 10,2 C 12,9 km/h (3 Bft)
23.09.2021 22:55 10,8 C 10,8 C 10,8 C 84 % 1017,8 hPa 0,0 l/m 1,9 km/h (1 Bft) O-SO 113 0 min 0,000 mm 0,0 UV-I 0 W/m 8,2 C 10,8 C 6,4 km/h (2 Bft)
23.09.2021 21:55 11,5 C 11,5 C 11,7 C 84 % 1017,6 hPa 0,0 l/m 2,6 km/h (1 Bft) O 95 0 min 0,000 mm 0,0 UV-I 0 W/m 8,9 C 11,5 C 6,4 km/h (2 Bft)
23.09.2021 20:55 12,4 C 12,4 C 12,4 C 84 % 1017,5 hPa 0,0 l/m 4,1 km/h (1 Bft) O 88 0 min 0,000 mm 0,0 UV-I 0 W/m 9,8 C 12,4 C 12,9 km/h (3 Bft)
23.09.2021 19:55 13,6 C 13,6 C 13,7 C 83 % 1017,6 hPa 0,0 l/m 1,7 km/h (1 Bft) O 91 0 min 0,025 mm 0,0 UV-I 0 W/m 10,8 C 13,6 C 4,8 km/h (1 Bft)
23.09.2021 18:55 14,7 C 14,7 C 14,8 C 81 % 1017,5 hPa 0,0 l/m 0,9 km/h (0 Bft) W-NW 301 0 min 0,102 mm 0,0 UV-I 7 W/m 11,5 C 14,7 C 3,2 km/h (1 Bft)
23.09.2021 17:55 17,3 C 17,3 C 17,6 C 73 % 1017,5 hPa 0,0 l/m 3,3 km/h (1 Bft) W-NW 301 55 min 0,228 mm 0,0 UV-I 28 W/m 12,4 C 17,3 C 6,4 km/h (2 Bft)
23.09.2021 16:55 19,5 C 19,5 C 19,6 C 69 % 1017,7 hPa 0,0 l/m 6,7 km/h (2 Bft) NW 317 60 min 0,331 mm 1,0 UV-I 272 W/m 13,7 C 19,4 C 9,7 km/h (2 Bft)
23.09.2021 15:55 20,4 C 20,3 C 20,4 C 60 % 1018,0 hPa 0,0 l/m 5,5 km/h (1 Bft) N-NW 343 60 min 0,381 mm 2,0 UV-I 427 W/m 12,4 C 20,4 C 11,3 km/h (2 Bft)
23.09.2021 14:55 19,6 C 19,6 C 19,6 C 63 % 1019,2 hPa 0,0 l/m 10,1 km/h (2 Bft) N-NW 346 60 min 0,406 mm 3,2 UV-I 547 W/m 12,4 C 18,2 C 17,7 km/h (3 Bft)
23.09.2021 13:55 19,3 C 19,1 C 19,3 C 60 % 1019,9 hPa 0,0 l/m 8,0 km/h (2 Bft) N 9 60 min 0,381 mm 4,3 UV-I 628 W/m 11,3 C 18,6 C 14,5 km/h (3 Bft)
23.09.2021 12:55 18,7 C 18,7 C 18,8 C 59 % 1020,8 hPa 0,0 l/m 7,8 km/h (2 Bft) N-NW 342 60 min 0,356 mm 4,7 UV-I 668 W/m 10,5 C 18,1 C 12,9 km/h (3 Bft)
23.09.2021 11:55 17,6 C 17,4 C 17,6 C 59 % 1021,7 hPa 0,0 l/m 4,9 km/h (1 Bft) SW 214 55 min 0,279 mm 4,2 UV-I 643 W/m 9,5 C 17,6 C 11,3 km/h (2 Bft)
23.09.2021 11:00 14,9 C 14,6 C 14,9 C 68 % 1022,8 hPa 0,0 l/m 5,8 km/h (2 Bft) S-SW 198 0 min 0,279 mm 3,2 UV-I 575 W/m 9,0 C 14,9 C 12,9 km/h (3 Bft)
_ Min-Zeit 23:35 23:35 23:25 12:25 18:20 - 18:05 - - - - - - 23:40 23:40 18:45
Minimum _ 10,1 C 10,1 C 10,2 C 55 % 1017,2 hPa - 0,0 km/h (0 Bft) - - - - - - 7,5 C 10,1 C 0,0 km/h (0 Bft)
_ Max-Zeit 16:00 15:55 16:00 20:45 11:00 11:00 15:05 - - 11:00 14:00 12:45 12:30 16:15 15:55 10:55
Maximum _ 20,5 C 20,3 C 20,5 C 84 % 1022,8 hPa 0,0 l/m 13,9 km/h
NW (3 Bft)
- - 5 min 0,406 mm 4,7 UV-I 675 W/m 13,8 C 20,4 C 40,2 km/h
NW (6 Bft)
Durchschnitt _ 15,6 C 15,5 C 15,7 C 71 % 1018,6 hPa #0,0 l/m 4,6 km/h (1 Bft) N - #1:10 h #0,406 mm 1,6 UV-I 183 W/m 10,2 C 15,4 C 10,7 km/h (2 Bft)
Rauscher Max - www.gruenau.tv